createdAt,value
2022-12-18T00:00:59.116Z,98.35
2022-12-18T00:04:04.519Z,96.97
2022-12-18T00:07:07.218Z,96.29
2022-12-18T00:10:10.304Z,96.69
2022-12-18T00:13:13.430Z,96.89
2022-12-18T00:16:21.990Z,96.65
2022-12-18T00:19:24.629Z,95.35
2022-12-18T00:22:27.438Z,96.84
2022-12-18T00:25:29.946Z,96.78
2022-12-18T00:28:33.628Z,97.61
2022-12-18T00:31:36.232Z,95.56
2022-12-18T00:34:39.055Z,95.42
2022-12-18T00:37:41.730Z,95.35
2022-12-18T00:40:45.048Z,96.66
2022-12-18T00:43:48.754Z,96.04
2022-12-18T00:46:51.656Z,95.70
2022-12-18T00:49:54.097Z,95.17
2022-12-18T00:52:58.019Z,94.81
2022-12-18T00:56:01.245Z,95.15
2022-12-18T00:59:04.230Z,95.33
2022-12-18T01:02:07.518Z,95.09
2022-12-18T01:05:12.286Z,94.08
2022-12-18T01:08:14.912Z,94.13
2022-12-18T01:11:21.312Z,94.63
2022-12-18T01:14:24.181Z,94.94
2022-12-18T01:17:26.989Z,94.32
2022-12-18T01:20:29.529Z,95.05
2022-12-18T01:23:32.397Z,96.05
2022-12-18T01:26:36.007Z,95.71
2022-12-18T01:29:39.108Z,94.78
2022-12-18T01:32:41.841Z,94.93
2022-12-18T01:35:44.814Z,94.85
2022-12-18T01:38:48.585Z,95.15
2022-12-18T01:42:03.411Z,95.37
2022-12-18T01:45:15.004Z,94.94
2022-12-18T01:48:19.435Z,94.93
2022-12-18T01:51:22.626Z,94.84
2022-12-18T01:54:25.854Z,94.51
2022-12-18T01:57:29.477Z,94.58
2022-12-18T02:00:32.664Z,94.36
2022-12-18T02:03:36.754Z,94.15
2022-12-18T02:06:42.510Z,95.02
2022-12-18T02:09:51.465Z,95.34
2022-12-18T02:13:08.237Z,95.01
2022-12-18T02:16:30.549Z,94.28
2022-12-18T02:19:57.867Z,95.57
2022-12-18T02:23:22.329Z,96.20
2022-12-18T02:26:37.408Z,95.98
2022-12-18T02:29:57.596Z,95.23
2022-12-18T02:33:04.940Z,95.54
2022-12-18T02:36:10.433Z,94.84
2022-12-18T02:39:16.594Z,96.19
2022-12-18T02:42:20.430Z,95.92
2022-12-18T02:45:24.216Z,96.39
2022-12-18T02:48:36.164Z,96.36
2022-12-18T02:51:54.282Z,97.11
2022-12-18T02:55:15.431Z,97.86
2022-12-18T02:58:27.885Z,98.43
2022-12-18T03:01:36.634Z,99.00
2022-12-18T03:04:42.617Z,98.08
2022-12-18T03:08:00.305Z,98.54
2022-12-18T03:11:08.974Z,100.00
2022-12-18T03:14:18.177Z,100.00
2022-12-18T03:17:26.440Z,100.00
2022-12-18T03:20:32.045Z,100.00
2022-12-18T03:23:41.055Z,99.99
2022-12-18T03:26:53.627Z,100.00
2022-12-18T03:30:09.110Z,100.00
2022-12-18T03:33:26.674Z,100.00
2022-12-18T03:36:34.884Z,100.00
2022-12-18T03:39:37.760Z,100.00
2022-12-18T03:42:51.812Z,100.00
2022-12-18T03:46:16.524Z,100.00
2022-12-18T03:49:33.493Z,100.00
2022-12-18T03:52:36.013Z,100.00
2022-12-18T03:55:40.106Z,100.00
2022-12-18T03:58:45.417Z,100.00
2022-12-18T04:01:53.910Z,100.00
2022-12-18T04:05:01.684Z,100.00
2022-12-18T04:08:05.495Z,100.00
2022-12-18T04:11:09.839Z,100.00
2022-12-18T04:14:17.624Z,100.00
2022-12-18T04:17:23.599Z,100.00
2022-12-18T04:20:26.511Z,100.00
2022-12-18T04:23:29.657Z,100.00
2022-12-18T04:26:32.740Z,100.00
2022-12-18T04:29:36.290Z,100.00
2022-12-18T04:32:38.778Z,100.00
2022-12-18T04:35:42.676Z,100.00
2022-12-18T04:38:45.802Z,100.00
2022-12-18T04:41:49.140Z,100.00
2022-12-18T04:44:51.723Z,100.00
2022-12-18T04:47:54.592Z,100.00
2022-12-18T04:50:57.272Z,100.00
2022-12-18T04:54:00.011Z,100.00
2022-12-18T04:57:02.450Z,100.00
2022-12-18T05:00:07.032Z,100.00
2022-12-18T05:03:09.641Z,100.00
2022-12-18T05:06:12.478Z,100.00
2022-12-18T05:09:15.331Z,100.00
2022-12-18T05:12:18.055Z,100.00
2022-12-18T05:15:20.601Z,100.00
2022-12-18T05:18:26.890Z,100.00
2022-12-18T05:21:29.841Z,100.00
2022-12-18T05:24:32.599Z,100.00
2022-12-18T05:27:35.119Z,100.00
2022-12-18T05:30:38.703Z,100.00
2022-12-18T05:33:45.317Z,100.00
2022-12-18T05:36:48.192Z,100.00
2022-12-18T05:39:50.749Z,100.00
2022-12-18T05:42:53.745Z,100.00
2022-12-18T05:45:57.237Z,100.00
2022-12-18T05:49:01.283Z,100.00
2022-12-18T05:52:03.786Z,100.00
2022-12-18T05:55:06.851Z,100.00
2022-12-18T05:58:11.944Z,100.00
2022-12-18T06:01:18.259Z,100.00
2022-12-18T06:04:21.216Z,100.00
2022-12-18T06:07:23.747Z,100.00
2022-12-18T06:10:26.821Z,100.00
2022-12-18T06:13:29.457Z,100.00
2022-12-18T06:16:32.923Z,100.00
2022-12-18T06:19:36.058Z,100.00
2022-12-18T06:22:38.896Z,100.00
2022-12-18T06:25:41.752Z,100.00
2022-12-18T06:28:45.069Z,100.00
2022-12-18T06:31:47.930Z,100.00
2022-12-18T06:34:50.753Z,100.00
2022-12-18T06:37:53.257Z,100.00
2022-12-18T06:40:56.071Z,100.00
2022-12-18T06:44:00.068Z,100.00
2022-12-18T06:47:03.367Z,100.00
2022-12-18T06:50:06.678Z,100.00
2022-12-18T06:53:09.590Z,100.00
2022-12-18T06:56:12.103Z,100.00
2022-12-18T06:59:15.770Z,100.00
2022-12-18T07:02:18.623Z,96.81
2022-12-18T07:05:21.555Z,96.54
2022-12-18T07:08:24.077Z,97.03
2022-12-18T07:11:27.045Z,94.95
2022-12-18T07:14:29.893Z,91.97
2022-12-18T07:17:32.851Z,94.68
2022-12-18T07:20:35.471Z,91.86
2022-12-18T07:23:38.973Z,91.99
2022-12-18T07:26:44.272Z,89.67
2022-12-18T07:29:47.719Z,88.36
2022-12-18T07:32:50.324Z,87.30
2022-12-18T07:35:53.236Z,91.49
2022-12-18T07:38:56.027Z,84.74
2022-12-18T07:42:17.578Z,84.83
2022-12-18T07:45:20.055Z,84.78
2022-12-18T07:48:23.073Z,82.65
2022-12-18T07:51:25.966Z,83.44
2022-12-18T07:54:28.748Z,81.60
2022-12-18T07:57:50.158Z,81.22
2022-12-18T08:00:54.027Z,81.14
2022-12-18T08:03:56.913Z,79.51
2022-12-18T08:06:59.803Z,76.89
2022-12-18T08:10:02.871Z,77.00
2022-12-18T08:13:07.112Z,75.28
2022-12-18T08:16:09.965Z,74.23
2022-12-18T08:19:13.110Z,72.68
2022-12-18T08:22:16.293Z,72.34
2022-12-18T08:25:18.850Z,71.68
2022-12-18T08:28:21.655Z,68.96
2022-12-18T08:31:25.070Z,69.54
2022-12-18T08:34:27.916Z,69.47
2022-12-18T08:37:30.724Z,68.53
2022-12-18T08:40:34.128Z,68.69
2022-12-18T08:43:55.290Z,66.97
2022-12-18T08:46:59.163Z,64.74
2022-12-18T08:50:01.737Z,64.45
2022-12-18T08:53:04.898Z,63.59
2022-12-18T08:56:08.677Z,63.04
2022-12-18T08:59:17.569Z,61.08
2022-12-18T09:02:22.016Z,61.88
2022-12-18T09:05:25.018Z,61.57
2022-12-18T09:08:28.583Z,61.40
2022-12-18T09:11:33.121Z,60.62
2022-12-18T09:14:36.723Z,62.94
2022-12-18T09:17:39.922Z,62.16
2022-12-18T09:20:42.996Z,62.73
2022-12-18T09:23:51.843Z,61.57
2022-12-18T09:26:57.869Z,60.74
2022-12-18T09:30:01.298Z,61.74
2022-12-18T09:33:05.855Z,60.29
2022-12-18T09:36:16.195Z,58.52
2022-12-18T09:39:19.707Z,58.88
2022-12-18T09:42:30.708Z,59.30
2022-12-18T09:45:43.729Z,58.42
2022-12-18T09:48:52.228Z,57.92
2022-12-18T09:52:09.671Z,59.53
2022-12-18T09:55:25.873Z,55.98
2022-12-18T09:58:52.613Z,56.94
2022-12-18T10:01:56.372Z,55.42
2022-12-18T10:05:13.495Z,54.88
2022-12-18T10:08:30.634Z,55.05
2022-12-18T10:11:45.129Z,54.71
2022-12-18T10:15:11.492Z,55.19
2022-12-18T10:18:20.293Z,54.42
2022-12-18T10:21:53.186Z,54.91
2022-12-18T10:25:26.529Z,54.10
2022-12-18T10:28:31.706Z,54.08
2022-12-18T10:31:34.535Z,51.59
2022-12-18T10:34:37.146Z,52.45
2022-12-18T10:38:01.657Z,52.39
2022-12-18T10:41:29.533Z,52.17
2022-12-18T10:44:32.631Z,53.14
2022-12-18T10:47:36.121Z,52.56
2022-12-18T10:51:09.849Z,52.12
2022-12-18T10:54:08.077Z,50.62
2022-12-18T10:57:26.040Z,52.67
2022-12-18T11:00:31.482Z,51.67
2022-12-18T11:03:44.665Z,52.51
2022-12-18T11:06:58.594Z,52.04
2022-12-18T11:10:04.926Z,53.53
2022-12-18T11:13:25.117Z,53.26
2022-12-18T11:16:29.763Z,53.09
2022-12-18T11:19:42.006Z,50.90
2022-12-18T11:22:56.699Z,51.02
2022-12-18T11:26:02.827Z,50.57
2022-12-18T11:29:14.125Z,53.34
2022-12-18T11:32:16.663Z,52.55
2022-12-18T11:35:31.624Z,54.24
2022-12-18T11:38:41.745Z,54.46
2022-12-18T11:42:12.472Z,51.71
2022-12-18T11:45:15.014Z,50.07
2022-12-18T11:48:26.633Z,49.58
2022-12-18T11:52:05.840Z,51.78
2022-12-18T11:55:31.467Z,51.93
2022-12-18T11:59:00.549Z,50.48
2022-12-18T12:02:23.483Z,49.77
2022-12-18T12:05:53.241Z,52.24
2022-12-18T12:09:05.481Z,50.65
2022-12-18T12:12:11.460Z,51.27
2022-12-18T12:15:20.324Z,52.90
2022-12-18T12:18:44.615Z,53.31
2022-12-18T12:22:03.371Z,52.33
2022-12-18T12:25:18.261Z,52.00
2022-12-18T12:28:37.543Z,52.73
2022-12-18T12:32:08.205Z,52.46
2022-12-18T12:35:33.024Z,52.36
2022-12-18T12:38:51.833Z,52.95
2022-12-18T12:42:13.822Z,51.72
2022-12-18T12:45:24.277Z,52.40
2022-12-18T12:48:47.259Z,55.08
2022-12-18T12:52:16.095Z,56.71
2022-12-18T12:55:22.967Z,57.40
2022-12-18T12:58:59.234Z,55.24
2022-12-18T13:02:34.809Z,57.50
2022-12-18T13:05:50.714Z,58.54
2022-12-18T13:08:59.503Z,59.15
2022-12-18T13:12:24.057Z,59.08
2022-12-18T13:15:47.028Z,59.31
2022-12-18T13:18:53.441Z,58.64
2022-12-18T13:21:57.600Z,59.85
2022-12-18T13:25:01.053Z,59.35
2022-12-18T13:28:10.740Z,61.08
2022-12-18T13:31:32.125Z,60.97
2022-12-18T13:34:35.151Z,61.46
2022-12-18T13:37:45.121Z,60.77
2022-12-18T13:40:47.807Z,61.36
2022-12-18T13:44:00.127Z,62.56
2022-12-18T13:47:05.246Z,63.63
2022-12-18T13:50:28.593Z,64.13
2022-12-18T13:53:38.381Z,64.96
2022-12-18T13:56:46.443Z,66.13
2022-12-18T13:59:52.750Z,65.94
2022-12-18T14:02:56.721Z,66.60
2022-12-18T14:06:07.650Z,67.69
2022-12-18T14:09:20.329Z,68.91
2022-12-18T14:12:46.336Z,69.46
2022-12-18T14:15:51.775Z,69.13
2022-12-18T14:19:04.571Z,69.68
2022-12-18T14:22:30.457Z,70.92
2022-12-18T14:25:33.771Z,71.19
2022-12-18T14:28:45.241Z,72.03
2022-12-18T14:32:05.609Z,72.27
2022-12-18T14:35:14.608Z,73.31
2022-12-18T14:38:17.405Z,72.58
2022-12-18T14:41:20.776Z,73.24
2022-12-18T14:44:23.705Z,74.10
2022-12-18T14:47:26.345Z,74.95
2022-12-18T14:50:29.397Z,75.25
2022-12-18T14:53:36.791Z,75.37
2022-12-18T14:56:46.326Z,76.16
2022-12-18T14:59:48.972Z,75.67
2022-12-18T15:02:56.591Z,76.14
2022-12-18T15:06:17.147Z,76.52
2022-12-18T15:09:26.637Z,76.95
2022-12-18T15:12:49.707Z,77.39
2022-12-18T15:15:55.627Z,78.12
2022-12-18T15:18:59.209Z,79.18
2022-12-18T15:22:06.305Z,78.89
2022-12-18T15:25:35.159Z,80.22
2022-12-18T15:28:57.067Z,79.63
2022-12-18T15:32:05.411Z,95.87
2022-12-18T15:35:23.864Z,79.13
2022-12-18T15:38:27.445Z,81.48
2022-12-18T15:41:33.726Z,81.37
2022-12-18T15:44:38.397Z,81.66
2022-12-18T15:47:42.964Z,81.50
2022-12-18T15:50:46.125Z,83.21
2022-12-18T15:53:51.372Z,82.77
2022-12-18T15:57:12.590Z,81.50
2022-12-18T16:00:16.367Z,82.45
2022-12-18T16:03:19.510Z,82.46
2022-12-18T16:06:24.440Z,82.97
2022-12-18T16:09:27.692Z,83.45
2022-12-18T16:12:30.856Z,83.05
2022-12-18T16:15:34.044Z,83.29
2022-12-18T16:18:37.261Z,83.42
2022-12-18T16:21:41.362Z,83.95
2022-12-18T16:24:49.079Z,84.00
2022-12-18T16:27:58.875Z,91.27
2022-12-18T16:31:05.209Z,88.82
2022-12-18T16:34:28.882Z,86.40
2022-12-18T16:37:36.846Z,80.33
2022-12-18T16:41:02.041Z,83.51
2022-12-18T16:44:04.970Z,84.86
2022-12-18T16:47:08.755Z,86.17
2022-12-18T16:50:13.493Z,86.28
2022-12-18T16:53:18.798Z,87.02
2022-12-18T16:56:22.187Z,87.56
2022-12-18T16:59:26.617Z,87.59
2022-12-18T17:02:29.718Z,88.25
2022-12-18T17:05:33.983Z,89.25
2022-12-18T17:08:38.654Z,90.05
2022-12-18T17:11:43.091Z,90.53
2022-12-18T17:14:47.140Z,91.54
2022-12-18T17:17:51.153Z,91.20
2022-12-18T17:20:59.465Z,91.92
2022-12-18T17:24:03.701Z,92.00
2022-12-18T17:27:07.414Z,92.20
2022-12-18T17:30:11.568Z,92.67
2022-12-18T17:33:14.704Z,93.12
2022-12-18T17:36:21.925Z,93.52
2022-12-18T17:39:24.825Z,93.25
2022-12-18T17:42:31.008Z,93.57
2022-12-18T17:45:38.052Z,94.12
2022-12-18T17:48:41.639Z,93.46
2022-12-18T17:51:44.613Z,94.69
2022-12-18T17:54:47.757Z,94.91
2022-12-18T17:57:52.451Z,93.75
2022-12-18T18:00:56.767Z,94.47
2022-12-18T18:04:00.784Z,94.96
2022-12-18T18:07:03.760Z,95.27
2022-12-18T18:10:07.952Z,95.38
2022-12-18T18:13:43.369Z,95.21
2022-12-18T18:16:52.034Z,95.50
2022-12-18T18:19:54.874Z,96.10
2022-12-18T18:22:58.152Z,96.59
2022-12-18T18:26:09.428Z,96.85
2022-12-18T18:29:17.053Z,97.72
2022-12-18T18:32:20.399Z,98.67
2022-12-18T18:35:52.417Z,98.36
2022-12-18T18:38:48.531Z,99.67
2022-12-18T18:41:52.172Z,100.00
2022-12-18T18:44:55.066Z,100.00
2022-12-18T18:47:59.348Z,100.00
2022-12-18T18:51:06.436Z,100.00
2022-12-18T18:54:11.136Z,100.00
2022-12-18T18:57:22.084Z,100.00
2022-12-18T19:00:26.615Z,100.00
2022-12-18T19:03:29.880Z,100.00
2022-12-18T19:06:32.985Z,100.00
2022-12-18T19:09:36.899Z,100.00
2022-12-18T19:13:02.204Z,100.00
2022-12-18T19:16:10.380Z,100.00
2022-12-18T19:19:14.270Z,100.00
2022-12-18T19:22:17.594Z,100.00
2022-12-18T19:25:22.557Z,100.00
2022-12-18T19:28:31.666Z,100.00
2022-12-18T19:31:37.138Z,100.00
2022-12-18T19:34:40.775Z,100.00
2022-12-18T19:37:46.247Z,100.00
2022-12-18T19:40:49.322Z,100.00
2022-12-18T19:43:53.113Z,100.00
2022-12-18T19:46:55.895Z,100.00
2022-12-18T19:50:01.886Z,100.00
2022-12-18T19:53:09.046Z,100.00
2022-12-18T19:56:19.189Z,100.00
2022-12-18T19:59:22.658Z,100.00
2022-12-18T20:02:25.639Z,100.00
2022-12-18T20:05:29.350Z,100.00
2022-12-18T20:08:36.228Z,100.00
2022-12-18T20:11:41.821Z,100.00
2022-12-18T20:14:47.710Z,100.00
2022-12-18T20:17:52.603Z,100.00
2022-12-18T20:20:55.617Z,100.00
2022-12-18T20:24:02.183Z,100.00
2022-12-18T20:27:06.905Z,100.00
2022-12-18T20:30:13.122Z,100.00
2022-12-18T20:33:16.680Z,100.00
2022-12-18T20:36:23.522Z,100.00
2022-12-18T20:39:30.057Z,100.00
2022-12-18T20:42:33.245Z,100.00
2022-12-18T20:45:37.237Z,100.00
2022-12-18T20:48:43.129Z,100.00
2022-12-18T20:51:49.143Z,100.00
2022-12-18T20:54:52.273Z,100.00
2022-12-18T20:57:55.226Z,100.00
2022-12-18T21:01:12.876Z,100.00
2022-12-18T21:04:15.943Z,100.00
2022-12-18T21:07:21.934Z,100.00
2022-12-18T21:10:27.003Z,100.00
2022-12-18T21:13:30.116Z,100.00
2022-12-18T21:16:35.150Z,100.00
2022-12-18T21:19:38.534Z,100.00
2022-12-18T21:22:43.252Z,100.00
2022-12-18T21:25:46.955Z,100.00
2022-12-18T21:28:58.063Z,100.00
2022-12-18T21:32:02.523Z,100.00
2022-12-18T21:35:05.474Z,100.00
2022-12-18T21:38:08.556Z,100.00
2022-12-18T21:41:41.693Z,100.00
2022-12-18T21:44:50.184Z,100.00
2022-12-18T21:47:52.822Z,100.00
2022-12-18T21:50:55.896Z,100.00
2022-12-18T21:53:58.595Z,100.00
2022-12-18T21:57:05.924Z,100.00
2022-12-18T22:00:18.866Z,100.00
2022-12-18T22:03:22.682Z,100.00
2022-12-18T22:06:25.351Z,100.00
2022-12-18T22:09:28.208Z,100.00
2022-12-18T22:12:41.776Z,100.00
2022-12-18T22:15:50.205Z,100.00
2022-12-18T22:18:55.422Z,100.00
2022-12-18T22:21:58.419Z,100.00
2022-12-18T22:25:00.976Z,100.00
2022-12-18T22:28:22.350Z,100.00
2022-12-18T22:31:25.930Z,100.00
2022-12-18T22:34:28.887Z,100.00
2022-12-18T22:37:31.741Z,100.00
2022-12-18T22:40:34.717Z,100.00
2022-12-18T22:43:37.839Z,100.00
2022-12-18T22:46:44.854Z,100.00
2022-12-18T22:49:50.688Z,100.00
2022-12-18T22:52:53.617Z,100.00
2022-12-18T22:56:02.480Z,100.00
2022-12-18T22:59:06.339Z,100.00
2022-12-18T23:02:09.012Z,100.00
2022-12-18T23:05:11.863Z,100.00
2022-12-18T23:08:16.812Z,100.00
2022-12-18T23:11:19.920Z,100.00
2022-12-18T23:14:24.007Z,100.00
2022-12-18T23:17:29.876Z,100.00
2022-12-18T23:20:34.830Z,100.00
2022-12-18T23:23:39.075Z,100.00
2022-12-18T23:26:41.855Z,100.00
2022-12-18T23:29:45.793Z,100.00
2022-12-18T23:32:50.519Z,100.00
2022-12-18T23:35:58.597Z,100.00
2022-12-18T23:39:01.577Z,100.00
2022-12-18T23:42:04.775Z,100.00
2022-12-18T23:45:16.574Z,100.00
2022-12-18T23:48:21.218Z,100.00
2022-12-18T23:51:25.644Z,100.00
2022-12-18T23:54:33.375Z,100.00
2022-12-18T23:57:36.828Z,100.00
